createdAt,value
2022-08-27T00:02:11.573Z,91.21
2022-08-27T00:04:42.325Z,91.16
2022-08-27T00:07:11.469Z,91.23
2022-08-27T00:09:40.297Z,90.75
2022-08-27T00:12:09.284Z,90.67
2022-08-27T00:14:39.446Z,90.68
2022-08-27T00:17:08.995Z,90.91
2022-08-27T00:19:38.272Z,92.07
2022-08-27T00:22:09.361Z,91.17
2022-08-27T00:24:38.372Z,92.02
2022-08-27T00:27:10.407Z,93.83
2022-08-27T00:29:38.938Z,95.70
2022-08-27T00:32:09.198Z,94.77
2022-08-27T00:34:37.551Z,94.68
2022-08-27T00:37:07.884Z,94.89
2022-08-27T00:39:37.051Z,94.37
2022-08-27T00:42:06.234Z,94.19
2022-08-27T00:44:35.187Z,94.48
2022-08-27T00:47:07.902Z,94.46
2022-08-27T00:49:41.970Z,95.18
2022-08-27T00:52:17.958Z,94.69
2022-08-27T00:54:47.126Z,95.30
2022-08-27T00:57:16.740Z,95.51
2022-08-27T00:59:45.534Z,95.44
2022-08-27T01:02:20.518Z,95.54
2022-08-27T01:04:52.590Z,95.36
2022-08-27T01:07:23.604Z,95.48
2022-08-27T01:09:54.526Z,95.39
2022-08-27T01:12:23.193Z,95.67
2022-08-27T01:14:53.038Z,96.30
2022-08-27T01:17:21.384Z,96.18
2022-08-27T01:19:53.670Z,96.60
2022-08-27T01:22:32.618Z,96.42
2022-08-27T01:25:07.245Z,95.84
2022-08-27T01:27:37.735Z,96.26
2022-08-27T01:30:09.060Z,97.16
2022-08-27T01:32:38.746Z,97.48
2022-08-27T01:35:11.093Z,97.14
2022-08-27T01:37:40.388Z,96.66
2022-08-27T01:40:13.409Z,96.93
2022-08-27T01:42:44.654Z,98.09
2022-08-27T01:45:14.983Z,97.60
2022-08-27T01:47:43.987Z,98.13
2022-08-27T01:50:16.382Z,99.61
2022-08-27T01:52:45.106Z,99.49
2022-08-27T01:55:17.518Z,100.00
2022-08-27T01:57:46.352Z,100.00
2022-08-27T02:00:19.329Z,100.00
2022-08-27T02:02:49.043Z,100.00
2022-08-27T02:05:17.920Z,100.00
2022-08-27T02:07:46.726Z,100.00
2022-08-27T02:10:19.697Z,100.00
2022-08-27T02:12:48.281Z,100.00
2022-08-27T02:15:17.854Z,100.00
2022-08-27T02:17:46.441Z,100.00
2022-08-27T02:20:15.669Z,100.00
2022-08-27T02:22:44.309Z,100.00
2022-08-27T02:25:15.655Z,100.00
2022-08-27T02:27:45.328Z,99.98
2022-08-27T02:30:16.484Z,100.00
2022-08-27T02:32:47.506Z,100.00
2022-08-27T02:35:16.901Z,100.00
2022-08-27T02:37:45.891Z,100.00
2022-08-27T02:40:17.369Z,100.00
2022-08-27T02:42:47.711Z,100.00
2022-08-27T02:45:17.526Z,100.00
2022-08-27T02:47:45.940Z,100.00
2022-08-27T02:50:14.946Z,100.00
2022-08-27T02:52:46.427Z,100.00
2022-08-27T02:55:17.299Z,100.00
2022-08-27T02:57:47.347Z,100.00
2022-08-27T03:00:19.112Z,100.00
2022-08-27T03:02:48.435Z,100.00
2022-08-27T03:05:18.414Z,100.00
2022-08-27T03:07:47.035Z,100.00
2022-08-27T03:10:17.846Z,100.00
2022-08-27T03:12:47.605Z,100.00
2022-08-27T03:15:17.808Z,100.00
2022-08-27T03:18:03.630Z,100.00
2022-08-27T03:20:32.123Z,100.00
2022-08-27T03:23:00.745Z,100.00
2022-08-27T03:25:29.150Z,100.00
2022-08-27T03:27:58.856Z,100.00
2022-08-27T03:30:27.707Z,100.00
2022-08-27T03:32:56.051Z,100.00
2022-08-27T03:35:24.573Z,100.00
2022-08-27T03:37:52.869Z,100.00
2022-08-27T03:40:21.228Z,100.00
2022-08-27T03:42:49.532Z,100.00
2022-08-27T03:45:19.206Z,100.00
2022-08-27T03:47:47.481Z,100.00
2022-08-27T03:50:15.703Z,100.00
2022-08-27T03:52:44.394Z,100.00
2022-08-27T03:55:12.651Z,100.00
2022-08-27T03:57:41.064Z,100.00
2022-08-27T04:00:12.082Z,100.00
2022-08-27T04:02:43.424Z,100.00
2022-08-27T04:05:13.245Z,100.00
2022-08-27T04:07:42.533Z,100.00
2022-08-27T04:10:13.520Z,100.00
2022-08-27T04:12:42.316Z,100.00
2022-08-27T04:15:12.587Z,100.00
2022-08-27T04:17:42.686Z,100.00
2022-08-27T04:20:34.168Z,100.00
2022-08-27T04:23:00.952Z,100.00
2022-08-27T04:25:29.618Z,100.00
2022-08-27T04:27:58.134Z,100.00
2022-08-27T04:30:26.574Z,100.00
2022-08-27T04:32:56.516Z,100.00
2022-08-27T04:35:24.965Z,100.00
2022-08-27T04:37:53.482Z,100.00
2022-08-27T04:40:21.841Z,100.00
2022-08-27T04:42:50.201Z,100.00
2022-08-27T04:45:18.561Z,100.00
2022-08-27T04:47:46.854Z,100.00
2022-08-27T04:50:16.774Z,100.00
2022-08-27T04:52:44.974Z,100.00
2022-08-27T04:55:13.341Z,100.00
2022-08-27T04:57:41.576Z,100.00
2022-08-27T05:00:11.596Z,100.00
2022-08-27T05:02:39.862Z,100.00
2022-08-27T05:05:11.123Z,100.00
2022-08-27T05:07:43.673Z,100.00
2022-08-27T05:10:12.302Z,100.00
2022-08-27T05:12:40.503Z,100.00
2022-08-27T05:15:09.641Z,100.00
2022-08-27T05:17:37.866Z,100.00
2022-08-27T05:20:07.554Z,100.00
2022-08-27T05:22:35.813Z,100.00
2022-08-27T05:25:06.444Z,100.00
2022-08-27T05:27:34.646Z,100.00
2022-08-27T05:30:03.107Z,100.00
2022-08-27T05:32:31.417Z,100.00
2022-08-27T05:35:00.455Z,100.00
2022-08-27T05:37:28.723Z,100.00
2022-08-27T05:39:57.041Z,100.00
2022-08-27T05:42:26.907Z,100.00
2022-08-27T05:44:55.785Z,100.00
2022-08-27T05:47:24.217Z,100.00
2022-08-27T05:49:53.723Z,100.00
2022-08-27T05:52:22.496Z,100.00
2022-08-27T05:54:50.835Z,100.00
2022-08-27T05:57:19.084Z,98.49
2022-08-27T06:00:06.058Z,97.79
2022-08-27T06:02:37.391Z,96.16
2022-08-27T06:05:06.297Z,95.14
2022-08-27T06:07:35.160Z,94.88
2022-08-27T06:10:03.502Z,93.55
2022-08-27T06:12:31.783Z,93.27
2022-08-27T06:15:01.886Z,92.43
2022-08-27T06:17:30.696Z,90.58
2022-08-27T06:19:59.154Z,88.14
2022-08-27T06:22:27.591Z,86.33
2022-08-27T06:24:55.926Z,84.92
2022-08-27T06:27:24.324Z,82.77
2022-08-27T06:29:52.864Z,82.06
2022-08-27T06:32:24.197Z,81.32
2022-08-27T06:34:52.741Z,81.04
2022-08-27T06:37:21.018Z,80.50
2022-08-27T06:39:49.485Z,79.69
2022-08-27T06:42:18.073Z,78.39
2022-08-27T06:44:46.405Z,77.06
2022-08-27T06:47:14.649Z,76.48
2022-08-27T06:49:46.422Z,75.34
2022-08-27T06:52:15.272Z,73.88
2022-08-27T06:54:43.582Z,72.52
2022-08-27T06:57:11.880Z,72.77
2022-08-27T06:59:41.054Z,71.23
2022-08-27T07:02:09.685Z,71.66
2022-08-27T07:04:38.573Z,71.23
2022-08-27T07:07:08.642Z,69.28
2022-08-27T07:09:37.072Z,69.77
2022-08-27T07:12:06.475Z,69.89
2022-08-27T07:14:38.064Z,69.65
2022-08-27T07:17:10.849Z,68.16
2022-08-27T07:19:41.244Z,68.60
2022-08-27T07:22:13.122Z,69.41
2022-08-27T07:24:41.686Z,69.03
2022-08-27T07:27:10.219Z,68.18
2022-08-27T07:29:38.618Z,67.81
2022-08-27T07:32:07.223Z,67.60
2022-08-27T07:34:35.669Z,67.65
2022-08-27T07:37:04.011Z,65.91
2022-08-27T07:39:33.663Z,64.19
2022-08-27T07:42:19.032Z,63.71
2022-08-27T07:44:47.872Z,64.08
2022-08-27T07:47:16.176Z,63.62
2022-08-27T07:49:44.567Z,63.65
2022-08-27T07:52:13.444Z,61.77
2022-08-27T07:54:43.113Z,61.76
2022-08-27T07:57:11.748Z,61.26
2022-08-27T07:59:40.014Z,60.04
2022-08-27T08:02:08.699Z,60.16
2022-08-27T08:04:37.073Z,59.27
2022-08-27T08:07:05.327Z,59.53
2022-08-27T08:09:34.515Z,59.82
2022-08-27T08:12:05.200Z,60.14
2022-08-27T08:14:33.694Z,59.19
2022-08-27T08:17:02.715Z,59.13
2022-08-27T08:19:33.492Z,59.27
2022-08-27T08:22:05.542Z,58.91
2022-08-27T08:24:35.270Z,59.05
2022-08-27T08:27:07.419Z,58.33
2022-08-27T08:29:37.799Z,58.53
2022-08-27T08:32:06.973Z,58.06
2022-08-27T08:34:36.146Z,57.11
2022-08-27T08:37:06.462Z,57.09
2022-08-27T08:39:36.180Z,57.91
2022-08-27T08:42:08.976Z,58.65
2022-08-27T08:44:43.263Z,56.53
2022-08-27T08:47:16.223Z,57.20
2022-08-27T08:49:55.346Z,57.58
2022-08-27T08:52:33.798Z,56.84
2022-08-27T08:55:12.102Z,57.98
2022-08-27T08:57:50.148Z,58.09
2022-08-27T09:00:19.712Z,56.67
2022-08-27T09:02:52.494Z,56.96
2022-08-27T09:05:21.352Z,58.50
2022-08-27T09:08:30.886Z,58.88
2022-08-27T09:11:00.091Z,59.37
2022-08-27T09:13:34.107Z,57.54
2022-08-27T09:16:04.617Z,59.38
2022-08-27T09:18:36.765Z,58.09
2022-08-27T09:21:12.582Z,57.89
2022-08-27T09:23:52.375Z,59.07
2022-08-27T09:26:26.759Z,57.31
2022-08-27T09:29:20.375Z,56.86
2022-08-27T09:31:58.402Z,56.76
2022-08-27T09:34:29.536Z,56.58
2022-08-27T09:37:05.757Z,57.10
2022-08-27T09:39:42.115Z,57.21
2022-08-27T09:42:10.683Z,54.09
2022-08-27T09:44:53.442Z,53.16
2022-08-27T09:47:22.008Z,53.97
2022-08-27T09:49:50.771Z,55.47
2022-08-27T09:52:33.354Z,54.98
2022-08-27T09:55:06.618Z,54.84
2022-08-27T09:57:37.439Z,54.61
2022-08-27T10:00:15.269Z,54.35
2022-08-27T10:02:53.125Z,56.20
2022-08-27T10:05:29.327Z,54.34
2022-08-27T10:08:02.347Z,52.16
2022-08-27T10:10:40.687Z,52.37
2022-08-27T10:13:15.536Z,53.10
2022-08-27T10:15:57.732Z,52.51
2022-08-27T10:18:32.671Z,51.25
2022-08-27T10:21:10.480Z,51.69
2022-08-27T10:23:45.993Z,51.83
2022-08-27T10:26:19.978Z,53.05
2022-08-27T10:29:15.642Z,50.79
2022-08-27T10:32:10.137Z,50.22
2022-08-27T10:34:46.550Z,50.59
2022-08-27T10:37:26.864Z,50.17
2022-08-27T10:40:18.123Z,51.13
2022-08-27T10:42:59.263Z,48.77
2022-08-27T10:45:42.827Z,49.35
2022-08-27T10:48:24.600Z,49.52
2022-08-27T10:50:59.533Z,49.88
2022-08-27T10:53:37.031Z,50.22
2022-08-27T10:56:14.698Z,49.24
2022-08-27T10:58:59.131Z,51.54
2022-08-27T11:01:38.502Z,50.79
2022-08-27T11:04:15.066Z,50.71
2022-08-27T11:06:47.864Z,49.45
2022-08-27T11:09:20.506Z,48.92
2022-08-27T11:14:49.195Z,52.33
2022-08-27T11:17:25.915Z,55.58
2022-08-27T11:20:09.680Z,57.54
2022-08-27T11:22:43.675Z,57.93
2022-08-27T11:25:29.222Z,57.43
2022-08-27T11:27:59.236Z,56.96
2022-08-27T11:30:36.181Z,57.53
2022-08-27T11:33:14.671Z,57.04
2022-08-27T11:36:02.093Z,57.53
2022-08-27T11:38:45.862Z,56.06
2022-08-27T11:41:44.570Z,55.22
2022-08-27T11:44:15.168Z,52.63
2022-08-27T11:46:47.123Z,54.67
2022-08-27T11:49:27.316Z,51.58
2022-08-27T11:52:03.762Z,51.17
2022-08-27T11:54:45.601Z,51.93
2022-08-27T11:57:27.780Z,49.28
2022-08-27T11:59:56.059Z,47.82
2022-08-27T12:02:27.134Z,47.34
2022-08-27T12:05:08.810Z,48.18
2022-08-27T12:07:41.135Z,46.08
2022-08-27T12:10:28.444Z,47.33
2022-08-27T12:13:13.556Z,45.03
2022-08-27T12:15:55.286Z,42.68
2022-08-27T12:18:43.903Z,43.51
2022-08-27T12:21:21.816Z,42.74
2022-08-27T12:24:10.787Z,43.96
2022-08-27T12:26:41.774Z,44.79
2022-08-27T12:29:24.836Z,45.36
2022-08-27T12:32:04.457Z,45.48
2022-08-27T12:34:44.011Z,46.30
2022-08-27T12:37:14.182Z,47.36
2022-08-27T12:39:49.625Z,44.51
2022-08-27T12:42:21.987Z,46.30
2022-08-27T12:44:56.718Z,50.74
2022-08-27T12:47:25.586Z,48.90
2022-08-27T12:49:57.830Z,48.06
2022-08-27T12:52:44.072Z,48.93
2022-08-27T12:55:24.284Z,48.05
2022-08-27T12:57:59.743Z,49.02
2022-08-27T13:00:37.612Z,47.30
2022-08-27T13:03:28.152Z,47.53
2022-08-27T13:05:57.975Z,46.71
2022-08-27T13:08:30.355Z,48.01
2022-08-27T13:11:10.117Z,49.60
2022-08-27T13:13:41.319Z,51.59
2022-08-27T13:16:09.818Z,52.78
2022-08-27T13:18:38.351Z,54.51
2022-08-27T13:21:15.040Z,56.00
2022-08-27T13:23:46.556Z,56.78
2022-08-27T13:26:23.434Z,57.28
2022-08-27T13:28:53.861Z,56.41
2022-08-27T13:31:24.978Z,56.03
2022-08-27T13:33:58.747Z,55.20
2022-08-27T13:36:29.491Z,56.35
2022-08-27T13:39:03.604Z,52.52
2022-08-27T13:41:36.249Z,53.15
2022-08-27T13:44:10.730Z,53.58
2022-08-27T13:46:47.966Z,54.32
2022-08-27T13:49:22.713Z,55.15
2022-08-27T13:51:58.976Z,54.34
2022-08-27T13:54:26.235Z,54.51
2022-08-27T13:57:08.610Z,55.06
2022-08-27T13:59:42.965Z,55.52
2022-08-27T14:02:23.143Z,55.44
2022-08-27T14:04:53.193Z,55.02
2022-08-27T14:07:27.465Z,54.17
2022-08-27T14:09:58.720Z,55.05
2022-08-27T14:12:33.263Z,56.74
2022-08-27T14:15:21.085Z,59.29
2022-08-27T14:17:49.724Z,61.93
2022-08-27T14:20:20.233Z,62.59
2022-08-27T14:22:48.934Z,65.26
2022-08-27T14:25:21.462Z,67.07
2022-08-27T14:27:54.808Z,67.96
2022-08-27T14:30:30.054Z,70.43
2022-08-27T14:33:00.571Z,71.26
2022-08-27T14:35:30.275Z,75.15
2022-08-27T14:38:00.001Z,77.53
2022-08-27T14:40:28.315Z,80.07
2022-08-27T14:42:58.070Z,84.23
2022-08-27T14:45:26.498Z,84.18
2022-08-27T14:48:02.071Z,83.85
2022-08-27T14:50:30.896Z,80.69
2022-08-27T14:52:59.105Z,81.32
2022-08-27T14:55:27.753Z,81.19
2022-08-27T14:57:57.443Z,80.35
2022-08-27T15:00:25.855Z,78.15
2022-08-27T15:02:55.487Z,78.30
2022-08-27T15:05:24.988Z,76.40
2022-08-27T15:07:55.147Z,75.26
2022-08-27T15:10:23.560Z,75.60
2022-08-27T15:12:52.423Z,77.24
2022-08-27T15:15:22.496Z,77.04
2022-08-27T15:17:50.854Z,76.09
2022-08-27T15:20:20.475Z,74.48
2022-08-27T15:22:51.705Z,75.57
2022-08-27T15:25:21.067Z,77.21
2022-08-27T15:27:49.462Z,78.15
2022-08-27T15:30:19.116Z,78.92
2022-08-27T15:32:49.989Z,78.67
2022-08-27T15:35:20.488Z,77.90
2022-08-27T15:37:48.900Z,78.75
2022-08-27T15:40:19.126Z,78.21
2022-08-27T15:42:50.868Z,77.57
2022-08-27T15:45:19.195Z,76.49
2022-08-27T15:47:51.887Z,77.24
2022-08-27T15:50:20.427Z,77.91
2022-08-27T15:52:58.795Z,77.46
2022-08-27T15:55:29.581Z,76.96
2022-08-27T15:57:58.631Z,74.75
2022-08-27T16:00:28.352Z,75.17
2022-08-27T16:02:58.740Z,77.63
2022-08-27T16:05:29.412Z,79.81
2022-08-27T16:07:57.790Z,80.90
2022-08-27T16:10:25.992Z,81.82
2022-08-27T16:12:54.233Z,81.62
2022-08-27T16:15:22.467Z,82.17
2022-08-27T16:18:00.892Z,82.45
2022-08-27T16:20:29.192Z,83.47
2022-08-27T16:22:57.434Z,84.15
2022-08-27T16:25:26.620Z,86.20
2022-08-27T16:27:54.872Z,87.25
2022-08-27T16:30:23.658Z,89.00
2022-08-27T16:32:53.442Z,91.50
2022-08-27T16:35:23.873Z,92.83
2022-08-27T16:37:52.444Z,95.43
2022-08-27T16:40:21.114Z,96.35
2022-08-27T16:42:52.353Z,100.00
2022-08-27T16:45:24.254Z,100.00
2022-08-27T16:48:10.030Z,100.00
2022-08-27T16:50:41.213Z,100.00
2022-08-27T16:53:13.912Z,100.00
2022-08-27T16:55:43.746Z,100.00
2022-08-27T16:58:17.885Z,100.00
2022-08-27T17:00:47.174Z,100.00
2022-08-27T17:03:15.618Z,100.00
2022-08-27T17:05:45.174Z,100.00
2022-08-27T17:08:13.860Z,100.00
2022-08-27T17:10:46.558Z,100.00
2022-08-27T17:13:16.953Z,100.00
2022-08-27T17:15:47.080Z,100.00
2022-08-27T17:18:17.124Z,100.00
2022-08-27T17:20:46.693Z,100.00
2022-08-27T17:23:21.673Z,100.00
2022-08-27T17:25:50.213Z,100.00
2022-08-27T17:28:18.413Z,100.00
2022-08-27T17:30:46.921Z,100.00
2022-08-27T17:33:21.702Z,100.00
2022-08-27T17:35:51.594Z,100.00
2022-08-27T17:38:19.934Z,100.00
2022-08-27T17:40:51.852Z,100.00
2022-08-27T17:43:21.431Z,100.00
2022-08-27T17:45:50.326Z,100.00
2022-08-27T17:48:22.670Z,100.00
2022-08-27T17:50:55.470Z,100.00
2022-08-27T17:53:23.655Z,100.00
2022-08-27T17:55:51.844Z,100.00
2022-08-27T17:58:21.280Z,100.00
2022-08-27T18:00:49.809Z,100.00
2022-08-27T18:03:21.306Z,100.00
2022-08-27T18:05:49.753Z,100.00
2022-08-27T18:08:20.667Z,100.00
2022-08-27T18:10:49.724Z,100.00
2022-08-27T18:13:19.056Z,100.00
2022-08-27T18:15:48.617Z,100.00
2022-08-27T18:18:16.838Z,100.00
2022-08-27T18:20:45.794Z,100.00
2022-08-27T18:23:14.543Z,100.00
2022-08-27T18:25:46.438Z,100.00
2022-08-27T18:28:15.625Z,100.00
2022-08-27T18:30:47.608Z,100.00
2022-08-27T18:33:15.785Z,100.00
2022-08-27T18:35:44.400Z,100.00
2022-08-27T18:38:13.219Z,100.00
2022-08-27T18:40:45.697Z,100.00
2022-08-27T18:43:17.997Z,100.00
2022-08-27T18:45:46.647Z,100.00
2022-08-27T18:48:17.340Z,100.00
2022-08-27T18:50:48.326Z,100.00
2022-08-27T18:53:20.029Z,100.00
2022-08-27T18:55:50.355Z,100.00
2022-08-27T18:58:18.934Z,100.00
2022-08-27T19:00:49.908Z,100.00
2022-08-27T19:03:24.265Z,100.00
2022-08-27T19:05:54.997Z,100.00
2022-08-27T19:08:24.557Z,100.00
2022-08-27T19:10:54.113Z,100.00
2022-08-27T19:13:22.433Z,100.00
2022-08-27T19:15:54.703Z,100.00
2022-08-27T19:18:25.456Z,100.00
2022-08-27T19:20:54.110Z,100.00
2022-08-27T19:23:23.742Z,100.00
2022-08-27T19:25:54.304Z,100.00
2022-08-27T19:28:28.264Z,100.00
2022-08-27T19:30:56.438Z,100.00
2022-08-27T19:33:24.742Z,100.00
2022-08-27T19:35:52.972Z,100.00
2022-08-27T19:38:21.412Z,100.00
2022-08-27T19:40:49.593Z,100.00
2022-08-27T19:43:19.186Z,100.00
2022-08-27T19:45:47.684Z,100.00
2022-08-27T19:48:17.674Z,100.00
2022-08-27T19:50:46.164Z,100.00
2022-08-27T19:53:16.804Z,100.00
2022-08-27T19:55:46.153Z,100.00
2022-08-27T19:58:14.808Z,100.00
2022-08-27T20:00:45.323Z,100.00
2022-08-27T20:03:13.767Z,100.00
2022-08-27T20:05:42.552Z,100.00
2022-08-27T20:08:12.834Z,100.00
2022-08-27T20:10:41.884Z,100.00
2022-08-27T20:13:10.652Z,100.00
2022-08-27T20:15:39.204Z,100.00
2022-08-27T20:18:11.708Z,100.00
2022-08-27T20:20:40.436Z,100.00
2022-08-27T20:23:09.465Z,100.00
2022-08-27T20:25:37.751Z,100.00
2022-08-27T20:28:35.358Z,100.00
2022-08-27T20:30:57.524Z,100.00
2022-08-27T20:33:27.874Z,100.00
2022-08-27T20:35:57.206Z,100.00
2022-08-27T20:38:25.886Z,100.00
2022-08-27T20:40:54.042Z,100.00
2022-08-27T20:43:22.613Z,100.00
2022-08-27T20:45:50.992Z,100.00
2022-08-27T20:48:19.245Z,100.00
2022-08-27T20:50:48.953Z,100.00
2022-08-27T20:53:17.663Z,100.00
2022-08-27T20:55:46.066Z,100.00
2022-08-27T20:58:31.695Z,100.00
2022-08-27T21:01:01.110Z,100.00
2022-08-27T21:03:29.406Z,100.00
2022-08-27T21:05:59.051Z,100.00
2022-08-27T21:08:27.675Z,100.00
2022-08-27T21:10:58.503Z,100.00
2022-08-27T21:13:28.754Z,100.00
2022-08-27T21:15:57.235Z,100.00
2022-08-27T21:18:29.504Z,100.00
2022-08-27T21:21:00.032Z,100.00
2022-08-27T21:23:29.551Z,100.00
2022-08-27T21:26:02.473Z,100.00
2022-08-27T21:28:31.154Z,100.00
2022-08-27T21:30:59.492Z,100.00
2022-08-27T21:33:27.831Z,100.00
2022-08-27T21:35:56.113Z,100.00
2022-08-27T21:38:25.762Z,100.00
2022-08-27T21:40:54.310Z,100.00
2022-08-27T21:43:22.682Z,100.00
2022-08-27T21:45:55.791Z,100.00
2022-08-27T21:48:24.493Z,100.00
2022-08-27T21:50:53.693Z,100.00
2022-08-27T21:53:22.399Z,100.00
2022-08-27T21:55:53.223Z,100.00
2022-08-27T21:58:26.257Z,100.00
2022-08-27T22:00:55.624Z,100.00
2022-08-27T22:03:25.820Z,100.00
2022-08-27T22:05:54.133Z,100.00
2022-08-27T22:08:23.760Z,100.00
2022-08-27T22:10:57.996Z,100.00
2022-08-27T22:13:26.355Z,100.00
2022-08-27T22:15:54.679Z,100.00
2022-08-27T22:18:23.833Z,100.00
2022-08-27T22:20:52.567Z,100.00
2022-08-27T22:23:21.847Z,100.00
2022-08-27T22:25:50.139Z,100.00
2022-08-27T22:28:20.831Z,100.00
2022-08-27T22:30:49.475Z,100.00
2022-08-27T22:33:19.113Z,100.00
2022-08-27T22:35:47.767Z,100.00
2022-08-27T22:38:16.004Z,100.00
2022-08-27T22:40:44.141Z,100.00
2022-08-27T22:43:12.742Z,100.00
2022-08-27T22:45:42.395Z,100.00
2022-08-27T22:48:10.787Z,100.00
2022-08-27T22:50:39.373Z,100.00
2022-08-27T22:53:07.831Z,100.00
2022-08-27T22:55:36.851Z,100.00
2022-08-27T22:58:05.610Z,100.00
2022-08-27T23:00:36.132Z,100.00
2022-08-27T23:03:07.773Z,100.00
2022-08-27T23:05:40.270Z,100.00
2022-08-27T23:08:13.377Z,100.00
2022-08-27T23:10:43.392Z,100.00
2022-08-27T23:13:13.074Z,100.00
2022-08-27T23:15:42.353Z,100.00
2022-08-27T23:18:12.242Z,100.00
2022-08-27T23:20:40.911Z,100.00
2022-08-27T23:23:10.252Z,100.00
2022-08-27T23:25:56.661Z,100.00
2022-08-27T23:28:24.843Z,100.00
2022-08-27T23:30:53.420Z,100.00
2022-08-27T23:33:23.341Z,100.00
2022-08-27T23:35:51.996Z,100.00
2022-08-27T23:38:21.471Z,100.00
2022-08-27T23:40:51.309Z,100.00
2022-08-27T23:43:20.501Z,100.00
2022-08-27T23:45:49.861Z,100.00
2022-08-27T23:48:17.986Z,100.00
2022-08-27T23:50:47.692Z,100.00
2022-08-27T23:53:16.331Z,100.00
2022-08-27T23:55:44.812Z,100.00
2022-08-27T23:58:13.593Z,100.00
